OOCL Long Beach — VRYO4 — position and weather

sailwx.info

Track history (hours):
 
Tides and Currents Weather Stations Pressure Air Temp Water Temp Dewpoint Dewpoint Depression Visibility Wind Speed Wind Dir Waves Ship Positions

OOCL Long Beach

Last reported at 2016-Jul-25 00:00 UTC. Time now 2016-Jul-25 06:15 UTC.
Position N 45°42' W 145°48'.

Length 323 m; beam 42.8 m; draft 14.5 m.

Type: Cargo ship. MMSI: 477316000.

Wind from 210 at 16 knots

Waves 1.0 meters (3 feet), 7 second period

Barometer 1022.1 mb
Air temperature 16.0 ° C
Visibility: greater than 5.4 NM
Dewpoint 13.5 ° C

Date/timePositionNaut miles runAvg speedWind from/ knotsBaromVisibWave heightAir tempDewpointWater temp
2016-Jul-25 00:00N 45°42' W 145°48'63326.4 210 / 161022.1 5.4 1.016.013.5
2016-Jul-24 00:00N 42°42' W 131°42'29910.4 270 / 81029.710.8 1.023.015.2
2016-Jul-22 19:08N 38°24' W 128°24'1115.8
2016-Jul-22 18:27N 38°17' W 128°13'7114.6
2016-Jul-22 13:33N 38°10' W 126°43'1514.5
2016-Jul-22 12:32N 38°10' W 126°24'1414.3
2016-Jul-22 11:33N 38°10' W 126°06'1514.5
2016-Jul-22 10:33N 38°10' W 125°48'1515.0
2016-Jul-22 09:33N 38°10' W 125°29'1514.8
2016-Jul-22 08:33N 38°10' W 125°10'1414.4
2016-Jul-22 07:33N 38°10' W 124°52'2914.3
2016-Jul-22 05:33N 38°10' W 124°15'1414.3
2016-Jul-22 04:33N 38°10' W 123°57'1413.9
2016-Jul-22 03:33N 38°10' W 123°39'1413.7
2016-Jul-22 02:33N 38°10' W 123°22'1413.6
2016-Jul-22 01:33N 38°00' W 123°10'1413.6
2016-Jul-22 00:33N 37°53' W 122°56'1413.7
2016-Jul-21 23:33N 37°46' W 122°41'1413.8
2016-Jul-21 22:34N 37°50' W 122°24'4 3.8
2016-Jul-21 21:33N 37°49' W 122°20'0 0.0
2016-Jul-21 20:33N 37°49' W 122°20'0 0.0
2016-Jul-21 19:33N 37°49' W 122°20'0 0.0
2016-Jul-21 18:33N 37°49' W 122°20'0 0.0
2016-Jul-21 17:33N 37°49' W 122°20'0 0.0
2016-Jul-21 16:33N 37°49' W 122°20'0 0.0
2016-Jul-21 15:33N 37°49' W 122°20'0 0.0
2016-Jul-21 14:33N 37°49' W 122°20'0 0.0
2016-Jul-21 13:33N 37°49' W 122°20'0 0.0
2016-Jul-21 12:33N 37°49' W 122°20'0 0.0
2016-Jul-21 11:33N 37°49' W 122°20'0 0.0
2016-Jul-21 10:33N 37°49' W 122°20'0 0.0
2016-Jul-21 09:33N 37°49' W 122°20'0 0.0
2016-Jul-21 08:33N 37°49' W 122°20'0 0.0
2016-Jul-21 07:33N 37°49' W 122°20'0 0.0
2016-Jul-21 06:33N 37°49' W 122°20'0 0.0
2016-Jul-21 05:33N 37°49' W 122°20'0 0.0
2016-Jul-21 04:33N 37°49' W 122°20'0 0.0
2016-Jul-21 03:33N 37°49' W 122°20'0 0.0
2016-Jul-21 02:33N 37°49' W 122°20'0 0.0
2016-Jul-21 01:33N 37°49' W 122°20'0 0.0
2016-Jul-21 00:33N 37°49' W 122°20'9 9.5
2016-Jul-20 23:33N 37°48' W 122°32'1111.5
2016-Jul-20 22:33N 37°38' W 122°40'10 9.8
2016-Jul-20 21:33N 37°28' W 122°40'9 9.3
2016-Jul-20 20:33N 37°19' W 122°40'1716.8
2016-Jul-20 19:33N 37°03' W 122°35'2020.4
2016-Jul-20 18:33N 36°43' W 122°27'2121.2
2016-Jul-20 17:33N 36°24' W 122°16'2120.6
2016-Jul-20 16:33N 36°05' W 122°06'2020.2
2016-Jul-20 15:34N 35°46' W 121°57'2020.2
2016-Jul-20 14:34N 35°28' W 121°47'2020.4
2016-Jul-20 13:33N 35°09' W 121°37'2020.2
2016-Jul-20 12:34N 34°51' W 121°27'2019.9
2016-Jul-20 11:34N 34°32' W 121°18'2020.4
2016-Jul-20 10:34N 34°16' W 121°03'2120.7
2016-Jul-20 09:33N 34°00' W 120°47'2020.5
2016-Jul-20 08:34N 33°49' W 120°26'2120.9
2016-Jul-20 07:33N 33°42' W 120°02'2421.5
2016-Jul-20 06:27N 33°39' W 119°34'1921.0
2016-Jul-20 05:33N 33°38' W 119°11'1313.5
2016-Jul-20 04:33N 33°38' W 118°55'1211.7
2016-Jul-20 03:33N 33°38' W 118°41'1211.7
2016-Jul-20 02:33N 33°38' W 118°27'1111.1
2016-Jul-20 01:33N 33°38' W 118°13'7 6.6
2016-Jul-20 00:33N 33°45' W 118°13'0 0.4
2016-Jul-19 23:33N 33°45' W 118°13'0 0.0
2016-Jul-19 22:33N 33°45' W 118°13'0 0.0
2016-Jul-19 21:33N 33°45' W 118°13'0 0.0
2016-Jul-19 20:33N 33°45' W 118°13'0 0.0
2016-Jul-19 19:33N 33°45' W 118°13'0 0.0
2016-Jul-19 18:33N 33°45' W 118°13'0 0.0
2016-Jul-19 17:33N 33°45' W 118°13'0 0.0
2016-Jul-19 16:33N 33°45' W 118°13'0 0.0
2016-Jul-19 15:33N 33°45' W 118°13'0 0.0
2016-Jul-19 14:33N 33°45' W 118°13'0 0.0
2016-Jul-19 13:33N 33°45' W 118°13'0 0.0
2016-Jul-19 12:33N 33°45' W 118°13'0 0.0
2016-Jul-19 11:33N 33°45' W 118°13'0 0.0
2016-Jul-19 10:33N 33°45' W 118°13'0 0.0
2016-Jul-19 09:33N 33°45' W 118°13'0 0.0
2016-Jul-19 08:30N 33°45' W 118°13'0 0.0
2016-Jul-19 07:33N 33°45' W 118°13'0 0.0
2016-Jul-19 04:33N 33°45' W 118°13'0 0.0
2016-Jul-19 03:33N 33°45' W 118°13'0 0.0
2016-Jul-19 02:33N 33°45' W 118°13'0 0.0
2016-Jul-19 01:33N 33°45' W 118°13'0 0.0
2016-Jul-19 00:33N 33°45' W 118°13'0 0.0
2016-Jul-18 23:33N 33°45' W 118°13'0 0.0
2016-Jul-18 22:33N 33°45' W 118°13'0 0.0
2016-Jul-18 21:33N 33°45' W 118°13'0 0.0
2016-Jul-18 20:33N 33°45' W 118°13'0 0.0
2016-Jul-18 19:33N 33°45' W 118°13'0 0.0
2016-Jul-18 18:33N 33°45' W 118°13'0 0.0
2016-Jul-18 16:12N 33°45' W 118°13'0 0.0
2016-Jul-18 15:33N 33°45' W 118°13'0 0.0
2016-Jul-18 14:33N 33°45' W 118°13'0 0.0
2016-Jul-18 13:33N 33°45' W 118°13'0 0.0
2016-Jul-18 12:33N 33°45' W 118°13'0 0.0
2016-Jul-18 11:33N 33°45' W 118°13'0 0.0
2016-Jul-18 10:15N 33°45' W 118°13'0 0.0
2016-Jul-18 09:33N 33°45' W 118°13'0 0.0
2016-Jul-18 08:15N 33°45' W 118°13'0 0.0
2016-Jul-18 07:33N 33°45' W 118°13'0 0.0
2016-Jul-18 06:24N 33°45' W 118°13'0 0.0
2016-Jul-18 04:33N 33°45' W 118°13'0 0.0
2016-Jul-18 03:33N 33°45' W 118°13'0 0.0
2016-Jul-18 02:33N 33°45' W 118°13'0 0.0
2016-Jul-18 01:27N 33°45' W 118°13'0 0.0
2016-Jul-18 00:21N 33°45' W 118°13'0 0.0
2016-Jul-17 23:33N 33°45' W 118°13'0 0.0
2016-Jul-17 22:33N 33°45' W 118°13'0 0.0
2016-Jul-17 21:27N 33°45' W 118°13'0 0.0
2016-Jul-17 20:09N 33°45' W 118°13'0 0.0
2016-Jul-17 19:33N 33°45' W 118°13'0 0.0
2016-Jul-17 18:33N 33°45' W 118°13'0 0.0
2016-Jul-17 15:33N 33°45' W 118°13'0 0.0
2016-Jul-17 14:33N 33°45' W 118°13'0 0.0
2016-Jul-17 13:33N 33°45' W 118°13'0 0.0
2016-Jul-17 12:33N 33°45' W 118°13'0 0.0
2016-Jul-17 11:21N 33°45' W 118°13'0 0.0
2016-Jul-17 10:27N 33°45' W 118°13'0 0.0
2016-Jul-17 09:33N 33°45' W 118°13'0 0.0
2016-Jul-17 08:33N 33°45' W 118°13'0 0.0
2016-Jul-17 07:24N 33°45' W 118°13'0 0.0
2016-Jul-17 04:15N 33°45' W 118°13'0 0.0
2016-Jul-17 03:33N 33°45' W 118°13'0 0.0
2016-Jul-17 02:33N 33°45' W 118°13'0 0.0
2016-Jul-17 01:33N 33°45' W 118°13'0 0.0
2016-Jul-17 00:33N 33°45' W 118°13'0 0.0
2016-Jul-16 23:33N 33°45' W 118°13'0 0.0
2016-Jul-16 22:33N 33°45' W 118°13'6 6.1
2016-Jul-16 21:33N 33°39' W 118°11'8 7.6
2016-Jul-16 20:32N 33°36' W 118°20'10 9.7
2016-Jul-16 19:33N 33°37' W 118°31'10 9.5
2016-Jul-16 18:33N 33°37' W 118°42'10 9.6
2016-Jul-16 17:33N 33°38' W 118°54'10 9.7
2016-Jul-16 16:33N 33°37' W 119°06'8 7.5
2016-Jul-16 15:33N 33°36' W 119°14'1010.3
2016-Jul-16 14:33N 33°34' W 119°27'1210.7
2016-Jul-16 13:28N 33°32' W 119°40'1010.5
2016-Jul-16 12:33N 33°30' W 119°52'1110.6
2016-Jul-16 11:33N 33°29' W 120°04'1414.2
2016-Jul-16 10:33N 33°30' W 120°21'1514.8
2016-Jul-16 09:33N 33°30' W 120°39'1514.9
2016-Jul-16 08:33N 33°31' W 120°57'1515.1
2016-Jul-16 07:33N 33°32' W 121°15'1614.8
2016-Jul-16 06:27N 33°33' W 121°35'2915.1
2016-Jul-16 04:33N 33°34' W 122°09'1515.1
2016-Jul-16 03:33N 33°35' W 122°27'4514.8
2016-Jul-16 00:32N 33°37' W 123°21'1615.0
2016-Jul-15 23:28N 33°38' W 123°40'7517.6
2016-Jul-15 19:12N 33°51' W 125°09'1414.9
2016-Jul-15 18:17N 33°59' W 125°23'11119.3
2016-Jul-15 12:33N 35°05' W 127°10'19020.2
2016-Jul-15 03:12N 36°54' W 130°22'1920.0
2016-Jul-15 02:15N 37°04' W 130°42'1420.1
2016-Jul-15 01:33N 37°12' W 130°56'2420.2
2016-Jul-15 00:22N 37°25' W 131°21'  
Track history (hours):
 
Tides and Currents Weather Stations Pressure Air Temp Water Temp Dewpoint Dewpoint Depression Visibility Wind Speed Wind Dir Waves Ship Positions

OOCL Long Beach

Last reported at 2016-Jul-25 00:00 UTC. Time now 2016-Jul-25 06:15 UTC.
Position N 45°42' W 145°48'.

Length 323 m; beam 42.8 m; draft 14.5 m.

Type: Cargo ship. MMSI: 477316000.

Wind from 210 at 16 knots

Waves 1.0 meters (3 feet), 7 second period

Barometer 1022.1 mb
Air temperature 16.0 ° C
Visibility: greater than 5.4 NM
Dewpoint 13.5 ° C

Date/timePositionNaut miles runAvg speedWind from/ knotsBaromVisibWave heightAir tempDewpointWater temp
2016-Jul-25 00:00N 45°42' W 145°48'63326.4 210 / 161022.1 5.4 1.016.013.5
2016-Jul-24 00:00N 42°42' W 131°42'29910.4 270 / 81029.710.8 1.023.015.2
2016-Jul-22 19:08N 38°24' W 128°24'1115.8
2016-Jul-22 18:27N 38°17' W 128°13'7114.6
2016-Jul-22 13:33N 38°10' W 126°43'1514.5
2016-Jul-22 12:32N 38°10' W 126°24'1414.3
2016-Jul-22 11:33N 38°10' W 126°06'1514.5
2016-Jul-22 10:33N 38°10' W 125°48'1515.0
2016-Jul-22 09:33N 38°10' W 125°29'1514.8
2016-Jul-22 08:33N 38°10' W 125°10'1414.4
2016-Jul-22 07:33N 38°10' W 124°52'2914.3
2016-Jul-22 05:33N 38°10' W 124°15'1414.3
2016-Jul-22 04:33N 38°10' W 123°57'1413.9
2016-Jul-22 03:33N 38°10' W 123°39'1413.7
2016-Jul-22 02:33N 38°10' W 123°22'1413.6
2016-Jul-22 01:33N 38°00' W 123°10'1413.6
2016-Jul-22 00:33N 37°53' W 122°56'1413.7
2016-Jul-21 23:33N 37°46' W 122°41'1413.8
2016-Jul-21 22:34N 37°50' W 122°24'4 3.8
2016-Jul-21 21:33N 37°49' W 122°20'0 0.0
2016-Jul-21 20:33N 37°49' W 122°20'0 0.0
2016-Jul-21 19:33N 37°49' W 122°20'0 0.0
2016-Jul-21 18:33N 37°49' W 122°20'0 0.0
2016-Jul-21 17:33N 37°49' W 122°20'0 0.0
2016-Jul-21 16:33N 37°49' W 122°20'0 0.0
2016-Jul-21 15:33N 37°49' W 122°20'0 0.0
2016-Jul-21 14:33N 37°49' W 122°20'0 0.0
2016-Jul-21 13:33N 37°49' W 122°20'0 0.0
2016-Jul-21 12:33N 37°49' W 122°20'0 0.0
2016-Jul-21 11:33N 37°49' W 122°20'0 0.0
2016-Jul-21 10:33N 37°49' W 122°20'0 0.0
2016-Jul-21 09:33N 37°49' W 122°20'0 0.0
2016-Jul-21 08:33N 37°49' W 122°20'0 0.0
2016-Jul-21 07:33N 37°49' W 122°20'0 0.0
2016-Jul-21 06:33N 37°49' W 122°20'0 0.0
2016-Jul-21 05:33N 37°49' W 122°20'0 0.0
2016-Jul-21 04:33N 37°49' W 122°20'0 0.0
2016-Jul-21 03:33N 37°49' W 122°20'0 0.0
2016-Jul-21 02:33N 37°49' W 122°20'0 0.0
2016-Jul-21 01:33N 37°49' W 122°20'0 0.0
2016-Jul-21 00:33N 37°49' W 122°20'9 9.5
2016-Jul-20 23:33N 37°48' W 122°32'1111.5
2016-Jul-20 22:33N 37°38' W 122°40'10 9.8
2016-Jul-20 21:33N 37°28' W 122°40'9 9.3
2016-Jul-20 20:33N 37°19' W 122°40'1716.8
2016-Jul-20 19:33N 37°03' W 122°35'2020.4
2016-Jul-20 18:33N 36°43' W 122°27'2121.2
2016-Jul-20 17:33N 36°24' W 122°16'2120.6
2016-Jul-20 16:33N 36°05' W 122°06'2020.2
2016-Jul-20 15:34N 35°46' W 121°57'2020.2
2016-Jul-20 14:34N 35°28' W 121°47'2020.4
2016-Jul-20 13:33N 35°09' W 121°37'2020.2
2016-Jul-20 12:34N 34°51' W 121°27'2019.9
2016-Jul-20 11:34N 34°32' W 121°18'2020.4
2016-Jul-20 10:34N 34°16' W 121°03'2120.7
2016-Jul-20 09:33N 34°00' W 120°47'2020.5
2016-Jul-20 08:34N 33°49' W 120°26'2120.9
2016-Jul-20 07:33N 33°42' W 120°02'2421.5
2016-Jul-20 06:27N 33°39' W 119°34'1921.0
2016-Jul-20 05:33N 33°38' W 119°11'1313.5
2016-Jul-20 04:33N 33°38' W 118°55'1211.7
2016-Jul-20 03:33N 33°38' W 118°41'1211.7
2016-Jul-20 02:33N 33°38' W 118°27'1111.1
2016-Jul-20 01:33N 33°38' W 118°13'7 6.6
2016-Jul-20 00:33N 33°45' W 118°13'0 0.4
2016-Jul-19 23:33N 33°45' W 118°13'0 0.0
2016-Jul-19 22:33N 33°45' W 118°13'0 0.0
2016-Jul-19 21:33N 33°45' W 118°13'0 0.0
2016-Jul-19 20:33N 33°45' W 118°13'0 0.0
2016-Jul-19 19:33N 33°45' W 118°13'0 0.0
2016-Jul-19 18:33N 33°45' W 118°13'0 0.0
2016-Jul-19 17:33N 33°45' W 118°13'0 0.0
2016-Jul-19 16:33N 33°45' W 118°13'0 0.0
2016-Jul-19 15:33N 33°45' W 118°13'0 0.0
2016-Jul-19 14:33N 33°45' W 118°13'0 0.0
2016-Jul-19 13:33N 33°45' W 118°13'0 0.0
2016-Jul-19 12:33N 33°45' W 118°13'0 0.0
2016-Jul-19 11:33N 33°45' W 118°13'0 0.0
2016-Jul-19 10:33N 33°45' W 118°13'0 0.0
2016-Jul-19 09:33N 33°45' W 118°13'0 0.0
2016-Jul-19 08:30N 33°45' W 118°13'0 0.0
2016-Jul-19 07:33N 33°45' W 118°13'0 0.0
2016-Jul-19 04:33N 33°45' W 118°13'0 0.0
2016-Jul-19 03:33N 33°45' W 118°13'0 0.0
2016-Jul-19 02:33N 33°45' W 118°13'0 0.0
2016-Jul-19 01:33N 33°45' W 118°13'0 0.0
2016-Jul-19 00:33N 33°45' W 118°13'0 0.0
2016-Jul-18 23:33N 33°45' W 118°13'0 0.0
2016-Jul-18 22:33N 33°45' W 118°13'0 0.0
2016-Jul-18 21:33N 33°45' W 118°13'0 0.0
2016-Jul-18 20:33N 33°45' W 118°13'0 0.0
2016-Jul-18 19:33N 33°45' W 118°13'0 0.0
2016-Jul-18 18:33N 33°45' W 118°13'0 0.0
2016-Jul-18 16:12N 33°45' W 118°13'0 0.0
2016-Jul-18 15:33N 33°45' W 118°13'0 0.0
2016-Jul-18 14:33N 33°45' W 118°13'0 0.0
2016-Jul-18 13:33N 33°45' W 118°13'0 0.0
2016-Jul-18 12:33N 33°45' W 118°13'0 0.0
2016-Jul-18 11:33N 33°45' W 118°13'0 0.0
2016-Jul-18 10:15N 33°45' W 118°13'0 0.0
2016-Jul-18 09:33N 33°45' W 118°13'0 0.0
2016-Jul-18 08:15N 33°45' W 118°13'0 0.0
2016-Jul-18 07:33N 33°45' W 118°13'0 0.0
2016-Jul-18 06:24N 33°45' W 118°13'0 0.0
2016-Jul-18 04:33N 33°45' W 118°13'0 0.0
2016-Jul-18 03:33N 33°45' W 118°13'0 0.0
2016-Jul-18 02:33N 33°45' W 118°13'0 0.0
2016-Jul-18 01:27N 33°45' W 118°13'0 0.0
2016-Jul-18 00:21N 33°45' W 118°13'0 0.0
2016-Jul-17 23:33N 33°45' W 118°13'0 0.0
2016-Jul-17 22:33N 33°45' W 118°13'0 0.0
2016-Jul-17 21:27N 33°45' W 118°13'0 0.0
2016-Jul-17 20:09N 33°45' W 118°13'0 0.0
2016-Jul-17 19:33N 33°45' W 118°13'0 0.0
2016-Jul-17 18:33N 33°45' W 118°13'0 0.0
2016-Jul-17 15:33N 33°45' W 118°13'0 0.0
2016-Jul-17 14:33N 33°45' W 118°13'0 0.0
2016-Jul-17 13:33N 33°45' W 118°13'0 0.0
2016-Jul-17 12:33N 33°45' W 118°13'0 0.0
2016-Jul-17 11:21N 33°45' W 118°13'0 0.0
2016-Jul-17 10:27N 33°45' W 118°13'0 0.0
2016-Jul-17 09:33N 33°45' W 118°13'0 0.0
2016-Jul-17 08:33N 33°45' W 118°13'0 0.0
2016-Jul-17 07:24N 33°45' W 118°13'0 0.0
2016-Jul-17 04:15N 33°45' W 118°13'0 0.0
2016-Jul-17 03:33N 33°45' W 118°13'0 0.0
2016-Jul-17 02:33N 33°45' W 118°13'0 0.0
2016-Jul-17 01:33N 33°45' W 118°13'0 0.0
2016-Jul-17 00:33N 33°45' W 118°13'0 0.0
2016-Jul-16 23:33N 33°45' W 118°13'0 0.0
2016-Jul-16 22:33N 33°45' W 118°13'6 6.1
2016-Jul-16 21:33N 33°39' W 118°11'8 7.6
2016-Jul-16 20:32N 33°36' W 118°20'10 9.7
2016-Jul-16 19:33N 33°37' W 118°31'10 9.5
2016-Jul-16 18:33N 33°37' W 118°42'10 9.6
2016-Jul-16 17:33N 33°38' W 118°54'10 9.7
2016-Jul-16 16:33N 33°37' W 119°06'8 7.5
2016-Jul-16 15:33N 33°36' W 119°14'1010.3
2016-Jul-16 14:33N 33°34' W 119°27'1210.7
2016-Jul-16 13:28N 33°32' W 119°40'1010.5
2016-Jul-16 12:33N 33°30' W 119°52'1110.6
2016-Jul-16 11:33N 33°29' W 120°04'1414.2
2016-Jul-16 10:33N 33°30' W 120°21'1514.8
2016-Jul-16 09:33N 33°30' W 120°39'1514.9
2016-Jul-16 08:33N 33°31' W 120°57'1515.1
2016-Jul-16 07:33N 33°32' W 121°15'1614.8
2016-Jul-16 06:27N 33°33' W 121°35'2915.1
2016-Jul-16 04:33N 33°34' W 122°09'1515.1
2016-Jul-16 03:33N 33°35' W 122°27'4514.8
2016-Jul-16 00:32N 33°37' W 123°21'1615.0
2016-Jul-15 23:28N 33°38' W 123°40'7517.6
2016-Jul-15 19:12N 33°51' W 125°09'1414.9
2016-Jul-15 18:17N 33°59' W 125°23'11119.3
2016-Jul-15 12:33N 35°05' W 127°10'19020.2
2016-Jul-15 03:12N 36°54' W 130°22'1920.0
2016-Jul-15 02:15N 37°04' W 130°42'1420.1
2016-Jul-15 01:33N 37°12' W 130°56'2420.2
2016-Jul-15 00:22N 37°25' W 131°21'  

Dump ship's entire track history